Bradford Regional Airport
KBFD : now visible

Airfield :











YOU CAN JOIN US ON...

 
LOGIN :

Register | Disclaimer

   EN    FR    IT 

 









Legend :    VFR   Marginal VFR   IFR   Intensive IFR   Very Intensive IFR
Visi :
Ceiling :
>= 8 km
>= 3000ft
5 to 8 km
1000 to 3000 ft
1500m to 5 km
500 to 1000 ft
800 to 1500m
200 to 500 ft
< 800m
< 200 ft
Symbols :   Thunderstorms  Fog  Heavy snow  Heavy precipitations  Wind > 20 kt






- Airport Elevation : 2143 ft
- IATA code : BFD


KBFD - Bradford Regional

CURRENT METAR :
  • 041053Z AUTO 08007KT 10SM FEW023 11/06 A3010 RMK AO2 SLP186 T01060061

EXPIRED METARs :
  • 040953Z AUTO 11003KT 10SM BKN018 11/06 A3009 RMK AO2 SLP181 T01060061
  • 040937Z AUTO VRB03KT 10SM SCT023 10/06 A3009 RMK AO2 T01000056
  • 040853Z AUTO 00000KT 10SM BKN019 10/06 A3008 RMK AO2 SLP178 T01000056 55001

TAF KBFD
Valid from the 04 at 09:00 until the 05 at 06:00 UTC


040910Z 0409/0506 07003KT P6SM BKN018
FM041200 06012KT P6SM FEW020
FM041600 03015KT P6SM SKC
FM050200 VRB03KT P6SM SKC
KZOB FIR / North America



MET'MAP, your aeronautical weather chart ! - Copyright ORBIFLY December 2007 - Disclaimer

ORBIFLY MET'MAP TEAM :

Programming & Development : Alexandra Zaïnal
Original concept : Baudouin d'Aumeries
Technical & hardware support : Manuel Goepfert
Assistance : Marc-Olivier Méhu




SOURCES & CREDITS :

   NOAA       Earth
Advisory